sensor_id;sensor_type;location;lat;lon;timestamp;temperature;humidity
54684;DHT22;40582;53.100;6.686;2022-10-22T00:01:08;12.50;99.90
54684;DHT22;40582;53.100;6.686;2022-10-22T00:03:34;12.50;99.90
54684;DHT22;40582;53.100;6.686;2022-10-22T00:05:59;12.50;99.90
54684;DHT22;40582;53.100;6.686;2022-10-22T00:08:25;12.50;99.90
54684;DHT22;40582;53.100;6.686;2022-10-22T00:10:51;12.50;99.90
54684;DHT22;40582;53.100;6.686;2022-10-22T00:13:17;12.40;99.90
54684;DHT22;40582;53.100;6.686;2022-10-22T00:15:43;12.40;99.90
54684;DHT22;40582;53.100;6.686;2022-10-22T00:18:09;12.50;99.90
54684;DHT22;40582;53.100;6.686;2022-10-22T00:20:34;12.40;99.90
54684;DHT22;40582;53.100;6.686;2022-10-22T00:23:00;12.40;99.90
54684;DHT22;40582;53.100;6.686;2022-10-22T00:25:26;12.40;99.90
54684;DHT22;40582;53.100;6.686;2022-10-22T00:27:51;12.40;99.90
54684;DHT22;40582;53.100;6.686;2022-10-22T00:30:17;12.40;99.90
54684;DHT22;40582;53.100;6.686;2022-10-22T00:32:43;12.40;99.90
54684;DHT22;40582;53.100;6.686;2022-10-22T00:35:08;12.40;99.90
54684;DHT22;40582;53.100;6.686;2022-10-22T00:37:34;12.40;99.90
54684;DHT22;40582;53.100;6.686;2022-10-22T00:40:00;12.40;99.90
54684;DHT22;40582;53.100;6.686;2022-10-22T00:42:27;12.40;99.90
54684;DHT22;40582;53.100;6.686;2022-10-22T00:47:54;12.40;99.90
54684;DHT22;40582;53.100;6.686;2022-10-22T00:50:29;12.40;99.90
54684;DHT22;40582;53.100;6.686;2022-10-22T00:52:56;12.30;99.90
54684;DHT22;40582;53.100;6.686;2022-10-22T00:55:24;12.30;99.90
54684;DHT22;40582;53.100;6.686;2022-10-22T00:57:51;12.30;99.90
54684;DHT22;40582;53.100;6.686;2022-10-22T01:00:19;12.30;99.90
54684;DHT22;40582;53.100;6.686;2022-10-22T01:02:46;12.30;99.90
54684;DHT22;40582;53.100;6.686;2022-10-22T01:05:12;12.30;99.90
54684;DHT22;40582;53.100;6.686;2022-10-22T01:07:44;12.30;99.90
54684;DHT22;40582;53.100;6.686;2022-10-22T01:10:52;12.30;99.90
54684;DHT22;40582;53.100;6.686;2022-10-22T01:21:40;12.30;99.90
54684;DHT22;40582;53.100;6.686;2022-10-22T01:24:25;12.30;99.90
54684;DHT22;40582;53.100;6.686;2022-10-22T01:29:40;12.30;99.90
54684;DHT22;40582;53.100;6.686;2022-10-22T01:32:13;12.30;99.90
54684;DHT22;40582;53.100;6.686;2022-10-22T01:34:43;12.30;99.90
54684;DHT22;40582;53.100;6.686;2022-10-22T01:37:11;12.30;99.90
54684;DHT22;40582;53.100;6.686;2022-10-22T01:39:39;12.30;99.90
54684;DHT22;40582;53.100;6.686;2022-10-22T01:42:06;12.30;99.90
54684;DHT22;40582;53.100;6.686;2022-10-22T01:44:34;12.30;99.90
54684;DHT22;40582;53.100;6.686;2022-10-22T01:50:08;12.20;99.90
54684;DHT22;40582;53.100;6.686;2022-10-22T01:55:27;12.20;99.90
54684;DHT22;40582;53.100;6.686;2022-10-22T02:00:39;12.30;99.90
54684;DHT22;40582;53.100;6.686;2022-10-22T02:03:13;12.30;99.90
54684;DHT22;40582;53.100;6.686;2022-10-22T02:05:45;12.30;99.90
54684;DHT22;40582;53.100;6.686;2022-10-22T02:08:22;12.30;99.90
54684;DHT22;40582;53.100;6.686;2022-10-22T02:10:49;12.30;99.90
54684;DHT22;40582;53.100;6.686;2022-10-22T02:13:19;12.30;99.90
54684;DHT22;40582;53.100;6.686;2022-10-22T02:15:48;12.30;99.90
54684;DHT22;40582;53.100;6.686;2022-10-22T02:18:17;12.30;99.90
54684;DHT22;40582;53.100;6.686;2022-10-22T02:20:44;12.30;99.90
54684;DHT22;40582;53.100;6.686;2022-10-22T02:23:10;12.30;99.90
54684;DHT22;40582;53.100;6.686;2022-10-22T02:25:39;12.30;99.90
54684;DHT22;40582;53.100;6.686;2022-10-22T02:28:23;12.30;99.90
54684;DHT22;40582;53.100;6.686;2022-10-22T02:30:53;12.30;99.90
54684;DHT22;40582;53.100;6.686;2022-10-22T02:33:27;12.30;99.90
54684;DHT22;40582;53.100;6.686;2022-10-22T02:35:54;12.30;99.90
54684;DHT22;40582;53.100;6.686;2022-10-22T02:38:22;12.00;99.90
54684;DHT22;40582;53.100;6.686;2022-10-22T02:40:48;12.30;99.90
54684;DHT22;40582;53.100;6.686;2022-10-22T02:43:14;12.30;99.90
54684;DHT22;40582;53.100;6.686;2022-10-22T02:45:39;12.30;99.90
54684;DHT22;40582;53.100;6.686;2022-10-22T02:48:05;12.30;99.90
54684;DHT22;40582;53.100;6.686;2022-10-22T02:50:31;12.30;99.90
54684;DHT22;40582;53.100;6.686;2022-10-22T02:52:57;12.20;99.90
54684;DHT22;40582;53.100;6.686;2022-10-22T02:55:22;12.20;99.90
54684;DHT22;40582;53.100;6.686;2022-10-22T02:57:48;12.20;99.90
54684;DHT22;40582;53.100;6.686;2022-10-22T03:00:14;12.20;99.90
54684;DHT22;40582;53.100;6.686;2022-10-22T03:02:40;12.20;99.90
54684;DHT22;40582;53.100;6.686;2022-10-22T03:05:06;12.20;99.90
54684;DHT22;40582;53.100;6.686;2022-10-22T03:07:32;12.20;99.90
54684;DHT22;40582;53.100;6.686;2022-10-22T03:09:57;12.20;99.90
54684;DHT22;40582;53.100;6.686;2022-10-22T03:12:23;12.20;99.90
54684;DHT22;40582;53.100;6.686;2022-10-22T03:14:49;12.20;99.90
54684;DHT22;40582;53.100;6.686;2022-10-22T03:17:14;12.20;99.90
54684;DHT22;40582;53.100;6.686;2022-10-22T03:19:40;12.20;99.90
54684;DHT22;40582;53.100;6.686;2022-10-22T03:22:27;12.20;99.90
54684;DHT22;40582;53.100;6.686;2022-10-22T03:24:57;12.20;99.90
54684;DHT22;40582;53.100;6.686;2022-10-22T03:27:26;12.30;99.90
54684;DHT22;40582;53.100;6.686;2022-10-22T03:29:52;12.20;99.90
54684;DHT22;40582;53.100;6.686;2022-10-22T03:32:18;12.30;99.90
54684;DHT22;40582;53.100;6.686;2022-10-22T03:34:44;12.20;99.90
54684;DHT22;40582;53.100;6.686;2022-10-22T03:37:10;12.20;99.90
54684;DHT22;40582;53.100;6.686;2022-10-22T03:39:36;12.20;99.90
54684;DHT22;40582;53.100;6.686;2022-10-22T03:42:03;12.20;99.90
54684;DHT22;40582;53.100;6.686;2022-10-22T03:44:30;12.20;99.90
54684;DHT22;40582;53.100;6.686;2022-10-22T03:46:56;12.10;99.90
54684;DHT22;40582;53.100;6.686;2022-10-22T03:49:21;12.10;99.90
54684;DHT22;40582;53.100;6.686;2022-10-22T03:51:47;12.00;99.90
54684;DHT22;40582;53.100;6.686;2022-10-22T03:54:14;12.00;99.90
54684;DHT22;40582;53.100;6.686;2022-10-22T03:56:39;12.00;99.90
54684;DHT22;40582;53.100;6.686;2022-10-22T03:59:05;12.00;99.90
54684;DHT22;40582;53.100;6.686;2022-10-22T04:01:31;12.00;99.90
54684;DHT22;40582;53.100;6.686;2022-10-22T04:03:57;12.00;99.90
54684;DHT22;40582;53.100;6.686;2022-10-22T04:06:23;12.00;99.90
54684;DHT22;40582;53.100;6.686;2022-10-22T04:08:49;12.00;99.90
54684;DHT22;40582;53.100;6.686;2022-10-22T04:11:15;12.00;99.90
54684;DHT22;40582;53.100;6.686;2022-10-22T04:13:42;12.00;99.90
54684;DHT22;40582;53.100;6.686;2022-10-22T04:16:12;11.90;99.90
54684;DHT22;40582;53.100;6.686;2022-10-22T04:18:38;11.90;99.90
54684;DHT22;40582;53.100;6.686;2022-10-22T04:21:06;11.90;99.90
54684;DHT22;40582;53.100;6.686;2022-10-22T04:23:32;11.90;99.90
54684;DHT22;40582;53.100;6.686;2022-10-22T04:26:03;11.90;99.90
54684;DHT22;40582;53.100;6.686;2022-10-22T04:28:29;11.90;99.90
54684;DHT22;40582;53.100;6.686;2022-10-22T04:30:55;11.90;99.90
54684;DHT22;40582;53.100;6.686;2022-10-22T04:33:21;11.90;99.90
54684;DHT22;40582;53.100;6.686;2022-10-22T04:35:47;11.90;99.90
54684;DHT22;40582;53.100;6.686;2022-10-22T04:38:12;11.90;99.90
54684;DHT22;40582;53.100;6.686;2022-10-22T04:40:38;11.90;99.90
54684;DHT22;40582;53.100;6.686;2022-10-22T04:43:04;11.80;99.90
54684;DHT22;40582;53.100;6.686;2022-10-22T04:45:32;11.90;99.90
54684;DHT22;40582;53.100;6.686;2022-10-22T04:47:57;11.80;99.90
54684;DHT22;40582;53.100;6.686;2022-10-22T04:50:23;11.90;99.90
54684;DHT22;40582;53.100;6.686;2022-10-22T04:52:49;11.90;99.90
54684;DHT22;40582;53.100;6.686;2022-10-22T04:55:14;11.90;99.90
54684;DHT22;40582;53.100;6.686;2022-10-22T04:57:40;11.90;99.90
54684;DHT22;40582;53.100;6.686;2022-10-22T05:00:06;12.00;99.90
54684;DHT22;40582;53.100;6.686;2022-10-22T05:02:32;11.90;99.90
54684;DHT22;40582;53.100;6.686;2022-10-22T05:04:58;11.90;99.90
54684;DHT22;40582;53.100;6.686;2022-10-22T05:07:23;11.90;99.90
54684;DHT22;40582;53.100;6.686;2022-10-22T05:09:49;11.90;99.90
54684;DHT22;40582;53.100;6.686;2022-10-22T05:12:15;12.00;99.90
54684;DHT22;40582;53.100;6.686;2022-10-22T05:14:41;12.00;99.90
54684;DHT22;40582;53.100;6.686;2022-10-22T05:17:07;12.00;99.90
54684;DHT22;40582;53.100;6.686;2022-10-22T05:19:32;11.90;99.90
54684;DHT22;40582;53.100;6.686;2022-10-22T05:22:02;12.00;99.90
54684;DHT22;40582;53.100;6.686;2022-10-22T05:24:30;12.00;99.90
54684;DHT22;40582;53.100;6.686;2022-10-22T05:26:57;11.90;99.90
54684;DHT22;40582;53.100;6.686;2022-10-22T05:29:23;12.00;99.90
54684;DHT22;40582;53.100;6.686;2022-10-22T05:31:49;12.00;99.90
54684;DHT22;40582;53.100;6.686;2022-10-22T05:34:16;11.90;99.90
54684;DHT22;40582;53.100;6.686;2022-10-22T05:36:42;11.90;99.90
54684;DHT22;40582;53.100;6.686;2022-10-22T05:39:07;11.90;99.90
54684;DHT22;40582;53.100;6.686;2022-10-22T05:41:34;11.90;99.90
54684;DHT22;40582;53.100;6.686;2022-10-22T05:44:03;11.90;99.90
54684;DHT22;40582;53.100;6.686;2022-10-22T05:46:33;11.90;99.90
54684;DHT22;40582;53.100;6.686;2022-10-22T05:49:01;11.90;99.90
54684;DHT22;40582;53.100;6.686;2022-10-22T05:51:29;11.90;99.90
54684;DHT22;40582;53.100;6.686;2022-10-22T05:54:00;11.90;99.90
54684;DHT22;40582;53.100;6.686;2022-10-22T05:56:28;11.90;99.90
54684;DHT22;40582;53.100;6.686;2022-10-22T05:58:54;11.90;99.90
54684;DHT22;40582;53.100;6.686;2022-10-22T06:01:23;11.90;99.90
54684;DHT22;40582;53.100;6.686;2022-10-22T06:03:52;11.90;99.90
54684;DHT22;40582;53.100;6.686;2022-10-22T06:08:48;11.90;99.90
54684;DHT22;40582;53.100;6.686;2022-10-22T06:11:16;11.90;99.90
54684;DHT22;40582;53.100;6.686;2022-10-22T06:13:43;12.00;99.90
54684;DHT22;40582;53.100;6.686;2022-10-22T06:16:09;12.00;99.90
54684;DHT22;40582;53.100;6.686;2022-10-22T06:18:35;12.00;99.90
54684;DHT22;40582;53.100;6.686;2022-10-22T06:21:09;12.00;99.90
54684;DHT22;40582;53.100;6.686;2022-10-22T06:23:35;12.10;99.90
54684;DHT22;40582;53.100;6.686;2022-10-22T06:26:02;12.10;99.90
54684;DHT22;40582;53.100;6.686;2022-10-22T06:28:28;12.10;99.90
54684;DHT22;40582;53.100;6.686;2022-10-22T06:30:53;12.20;99.90
54684;DHT22;40582;53.100;6.686;2022-10-22T06:33:19;12.20;99.90
54684;DHT22;40582;53.100;6.686;2022-10-22T06:35:45;12.20;99.90
54684;DHT22;40582;53.100;6.686;2022-10-22T06:38:13;12.20;99.90
54684;DHT22;40582;53.100;6.686;2022-10-22T06:40:38;12.20;99.90
54684;DHT22;40582;53.100;6.686;2022-10-22T06:43:08;12.20;99.90
54684;DHT22;40582;53.100;6.686;2022-10-22T06:45:34;12.30;99.90
54684;DHT22;40582;53.100;6.686;2022-10-22T06:48:00;12.20;99.90
54684;DHT22;40582;53.100;6.686;2022-10-22T06:50:26;12.20;99.90
54684;DHT22;40582;53.100;6.686;2022-10-22T06:52:51;12.20;99.90
54684;DHT22;40582;53.100;6.686;2022-10-22T06:55:17;12.20;99.90
54684;DHT22;40582;53.100;6.686;2022-10-22T06:57:43;12.30;99.90
54684;DHT22;40582;53.100;6.686;2022-10-22T07:00:09;12.30;99.90
54684;DHT22;40582;53.100;6.686;2022-10-22T07:02:35;12.30;99.90
54684;DHT22;40582;53.100;6.686;2022-10-22T07:05:00;12.30;99.90
54684;DHT22;40582;53.100;6.686;2022-10-22T07:07:26;12.40;99.90
54684;DHT22;40582;53.100;6.686;2022-10-22T07:09:52;12.40;99.90
54684;DHT22;40582;53.100;6.686;2022-10-22T07:12:17;12.40;99.90
54684;DHT22;40582;53.100;6.686;2022-10-22T07:14:43;12.50;99.90
54684;DHT22;40582;53.100;6.686;2022-10-22T07:17:09;12.60;99.90
54684;DHT22;40582;53.100;6.686;2022-10-22T07:19:35;12.60;99.90
54684;DHT22;40582;53.100;6.686;2022-10-22T07:22:00;12.70;99.90
54684;DHT22;40582;53.100;6.686;2022-10-22T07:24:26;12.70;99.90
54684;DHT22;40582;53.100;6.686;2022-10-22T07:26:52;12.70;99.90
54684;DHT22;40582;53.100;6.686;2022-10-22T07:29:18;12.80;99.90
54684;DHT22;40582;53.100;6.686;2022-10-22T07:31:43;12.80;99.90
54684;DHT22;40582;53.100;6.686;2022-10-22T07:34:09;12.80;99.90
54684;DHT22;40582;53.100;6.686;2022-10-22T07:36:35;12.80;99.90
54684;DHT22;40582;53.100;6.686;2022-10-22T07:39:01;12.80;99.90
54684;DHT22;40582;53.100;6.686;2022-10-22T07:41:28;12.90;99.90
54684;DHT22;40582;53.100;6.686;2022-10-22T07:43:55;12.90;99.90
54684;DHT22;40582;53.100;6.686;2022-10-22T07:46:22;12.90;99.90
54684;DHT22;40582;53.100;6.686;2022-10-22T07:48:48;13.00;99.90
54684;DHT22;40582;53.100;6.686;2022-10-22T07:51:14;13.00;99.90
54684;DHT22;40582;53.100;6.686;2022-10-22T07:53:40;13.10;99.90
54684;DHT22;40582;53.100;6.686;2022-10-22T07:56:06;13.10;99.90
54684;DHT22;40582;53.100;6.686;2022-10-22T07:58:32;13.20;99.90
54684;DHT22;40582;53.100;6.686;2022-10-22T08:00:59;13.20;99.90
54684;DHT22;40582;53.100;6.686;2022-10-22T08:03:25;13.20;99.90
54684;DHT22;40582;53.100;6.686;2022-10-22T08:05:51;13.30;99.90
54684;DHT22;40582;53.100;6.686;2022-10-22T08:08:18;13.40;99.90
54684;DHT22;40582;53.100;6.686;2022-10-22T08:10:46;13.40;99.90
54684;DHT22;40582;53.100;6.686;2022-10-22T08:13:12;13.40;99.90
54684;DHT22;40582;53.100;6.686;2022-10-22T08:15:37;13.40;99.90
54684;DHT22;40582;53.100;6.686;2022-10-22T08:18:03;13.40;99.90
54684;DHT22;40582;53.100;6.686;2022-10-22T08:20:29;13.40;99.90
54684;DHT22;40582;53.100;6.686;2022-10-22T08:22:55;13.50;99.90
54684;DHT22;40582;53.100;6.686;2022-10-22T08:25:21;13.50;99.90
54684;DHT22;40582;53.100;6.686;2022-10-22T08:27:47;13.50;99.90
54684;DHT22;40582;53.100;6.686;2022-10-22T08:30:13;13.60;99.90
54684;DHT22;40582;53.100;6.686;2022-10-22T08:32:39;13.60;99.90
54684;DHT22;40582;53.100;6.686;2022-10-22T08:35:05;13.60;99.90
54684;DHT22;40582;53.100;6.686;2022-10-22T08:37:31;13.70;99.90
54684;DHT22;40582;53.100;6.686;2022-10-22T08:39:57;13.70;99.90
54684;DHT22;40582;53.100;6.686;2022-10-22T08:48:42;13.90;99.90
54684;DHT22;40582;53.100;6.686;2022-10-22T08:51:15;13.90;99.90
54684;DHT22;40582;53.100;6.686;2022-10-22T08:53:50;13.90;99.90
54684;DHT22;40582;53.100;6.686;2022-10-22T08:56:17;14.00;99.90
54684;DHT22;40582;53.100;6.686;2022-10-22T08:58:56;14.00;99.90
54684;DHT22;40582;53.100;6.686;2022-10-22T09:01:31;14.00;99.90
54684;DHT22;40582;53.100;6.686;2022-10-22T09:06:32;14.20;99.90
54684;DHT22;40582;53.100;6.686;2022-10-22T09:09:00;14.20;99.90
54684;DHT22;40582;53.100;6.686;2022-10-22T09:11:38;14.30;99.90
54684;DHT22;40582;53.100;6.686;2022-10-22T09:14:05;14.30;99.90
54684;DHT22;40582;53.100;6.686;2022-10-22T09:19:45;14.40;99.90
54684;DHT22;40582;53.100;6.686;2022-10-22T09:22:43;14.40;99.90
54684;DHT22;40582;53.100;6.686;2022-10-22T09:25:28;14.50;99.90
54684;DHT22;40582;53.100;6.686;2022-10-22T09:27:55;14.60;99.90
54684;DHT22;40582;53.100;6.686;2022-10-22T09:30:26;14.70;99.90
54684;DHT22;40582;53.100;6.686;2022-10-22T09:33:01;14.70;99.90
54684;DHT22;40582;53.100;6.686;2022-10-22T09:35:27;14.80;99.90
54684;DHT22;40582;53.100;6.686;2022-10-22T09:37:55;15.10;99.90
54684;DHT22;40582;53.100;6.686;2022-10-22T09:40:22;15.00;99.90
54684;DHT22;40582;53.100;6.686;2022-10-22T09:42:48;15.00;99.90
54684;DHT22;40582;53.100;6.686;2022-10-22T09:45:20;15.10;99.90
54684;DHT22;40582;53.100;6.686;2022-10-22T09:47:46;15.20;99.90
54684;DHT22;40582;53.100;6.686;2022-10-22T09:53:21;15.60;99.90
54684;DHT22;40582;53.100;6.686;2022-10-22T09:55:53;15.70;99.90
54684;DHT22;40582;53.100;6.686;2022-10-22T09:58:19;15.90;99.90
54684;DHT22;40582;53.100;6.686;2022-10-22T10:00:50;15.90;99.90
54684;DHT22;40582;53.100;6.686;2022-10-22T10:03:18;16.00;99.90
54684;DHT22;40582;53.100;6.686;2022-10-22T10:05:47;16.00;99.90
54684;DHT22;40582;53.100;6.686;2022-10-22T10:08:15;16.00;99.90
54684;DHT22;40582;53.100;6.686;2022-10-22T10:10:57;16.00;99.90
54684;DHT22;40582;53.100;6.686;2022-10-22T10:13:45;16.00;99.90
54684;DHT22;40582;53.100;6.686;2022-10-22T10:16:25;15.90;99.90
54684;DHT22;40582;53.100;6.686;2022-10-22T10:19:13;15.90;99.90
54684;DHT22;40582;53.100;6.686;2022-10-22T10:26:49;15.80;99.90
54684;DHT22;40582;53.100;6.686;2022-10-22T10:40:44;16.00;99.90
54684;DHT22;40582;53.100;6.686;2022-10-22T10:49:42;16.30;99.90
54684;DHT22;40582;53.100;6.686;2022-10-22T11:00:20;16.60;99.90
54684;DHT22;40582;53.100;6.686;2022-10-22T11:05:29;16.60;99.90
54684;DHT22;40582;53.100;6.686;2022-10-22T11:19:25;16.10;99.90
54684;DHT22;40582;53.100;6.686;2022-10-22T11:27:29;16.00;99.90
54684;DHT22;40582;53.100;6.686;2022-10-22T11:30:07;15.90;99.90
54684;DHT22;40582;53.100;6.686;2022-10-22T11:32:36;15.80;99.90
54684;DHT22;40582;53.100;6.686;2022-10-22T11:35:06;15.80;99.90
54684;DHT22;40582;53.100;6.686;2022-10-22T11:37:34;15.70;99.90
54684;DHT22;40582;53.100;6.686;2022-10-22T11:40:13;15.60;99.90
54684;DHT22;40582;53.100;6.686;2022-10-22T11:42:47;15.70;99.90
54684;DHT22;40582;53.100;6.686;2022-10-22T11:48:05;15.90;99.90
54684;DHT22;40582;53.100;6.686;2022-10-22T12:08:44;16.70;99.90
54684;DHT22;40582;53.100;6.686;2022-10-22T12:17:13;16.80;99.90
54684;DHT22;40582;53.100;6.686;2022-10-22T12:24:45;16.40;99.90
54684;DHT22;40582;53.100;6.686;2022-10-22T12:27:20;16.30;99.90
54684;DHT22;40582;53.100;6.686;2022-10-22T12:29:47;16.30;99.90
54684;DHT22;40582;53.100;6.686;2022-10-22T12:32:14;16.20;99.90
54684;DHT22;40582;53.100;6.686;2022-10-22T12:34:48;16.10;99.90
54684;DHT22;40582;53.100;6.686;2022-10-22T12:37:16;16.00;99.90
54684;DHT22;40582;53.100;6.686;2022-10-22T12:39:43;16.00;99.90
54684;DHT22;40582;53.100;6.686;2022-10-22T12:42:13;16.00;99.90
54684;DHT22;40582;53.100;6.686;2022-10-22T12:44:39;15.80;99.90
54684;DHT22;40582;53.100;6.686;2022-10-22T12:47:06;16.00;99.90
54684;DHT22;40582;53.100;6.686;2022-10-22T12:49:40;16.00;99.90
54684;DHT22;40582;53.100;6.686;2022-10-22T12:52:11;16.00;99.90
54684;DHT22;40582;53.100;6.686;2022-10-22T12:54:39;16.00;99.90
54684;DHT22;40582;53.100;6.686;2022-10-22T12:57:09;16.10;99.90
54684;DHT22;40582;53.100;6.686;2022-10-22T12:59:37;16.10;99.90
54684;DHT22;40582;53.100;6.686;2022-10-22T13:02:18;16.20;99.90
54684;DHT22;40582;53.100;6.686;2022-10-22T13:05:15;16.30;99.90
54684;DHT22;40582;53.100;6.686;2022-10-22T13:07:45;16.30;99.90
54684;DHT22;40582;53.100;6.686;2022-10-22T13:12:48;16.10;99.90
54684;DHT22;40582;53.100;6.686;2022-10-22T13:18:16;16.00;99.90
54684;DHT22;40582;53.100;6.686;2022-10-22T13:21:22;16.10;99.90
54684;DHT22;40582;53.100;6.686;2022-10-22T13:23:53;16.10;99.90
54684;DHT22;40582;53.100;6.686;2022-10-22T13:26:20;16.20;99.90
54684;DHT22;40582;53.100;6.686;2022-10-22T13:28:52;16.30;99.90
54684;DHT22;40582;53.100;6.686;2022-10-22T13:31:24;16.40;99.90
54684;DHT22;40582;53.100;6.686;2022-10-22T13:33:55;16.40;99.90
54684;DHT22;40582;53.100;6.686;2022-10-22T13:36:22;16.50;99.90
54684;DHT22;40582;53.100;6.686;2022-10-22T13:38:48;16.50;99.90
54684;DHT22;40582;53.100;6.686;2022-10-22T13:41:30;16.40;99.90
54684;DHT22;40582;53.100;6.686;2022-10-22T13:43:56;16.40;99.90
54684;DHT22;40582;53.100;6.686;2022-10-22T13:46:23;16.30;99.90
54684;DHT22;40582;53.100;6.686;2022-10-22T13:48:52;16.30;99.90
54684;DHT22;40582;53.100;6.686;2022-10-22T13:51:21;16.30;99.90
54684;DHT22;40582;53.100;6.686;2022-10-22T13:53:48;16.30;99.90
54684;DHT22;40582;53.100;6.686;2022-10-22T13:56:16;16.20;99.90
54684;DHT22;40582;53.100;6.686;2022-10-22T13:58:44;16.20;99.90
54684;DHT22;40582;53.100;6.686;2022-10-22T14:01:21;16.10;99.90
54684;DHT22;40582;53.100;6.686;2022-10-22T14:03:49;16.10;99.90
54684;DHT22;40582;53.100;6.686;2022-10-22T14:06:17;16.00;99.90
54684;DHT22;40582;53.100;6.686;2022-10-22T14:08:46;15.90;99.90
54684;DHT22;40582;53.100;6.686;2022-10-22T14:11:13;15.80;99.90
54684;DHT22;40582;53.100;6.686;2022-10-22T14:13:39;15.80;99.90
54684;DHT22;40582;53.100;6.686;2022-10-22T14:16:15;15.90;99.90
54684;DHT22;40582;53.100;6.686;2022-10-22T14:18:42;16.00;99.90
54684;DHT22;40582;53.100;6.686;2022-10-22T14:21:11;16.00;99.90
54684;DHT22;40582;53.100;6.686;2022-10-22T14:23:39;16.00;99.90
54684;DHT22;40582;53.100;6.686;2022-10-22T14:26:05;15.90;99.90
54684;DHT22;40582;53.100;6.686;2022-10-22T14:28:33;15.80;99.90
54684;DHT22;40582;53.100;6.686;2022-10-22T14:30:59;15.80;99.90
54684;DHT22;40582;53.100;6.686;2022-10-22T14:33:32;15.80;99.90
54684;DHT22;40582;53.100;6.686;2022-10-22T14:36:00;15.80;99.90
54684;DHT22;40582;53.100;6.686;2022-10-22T14:38:27;15.80;99.90
54684;DHT22;40582;53.100;6.686;2022-10-22T14:40:52;15.80;99.90
54684;DHT22;40582;53.100;6.686;2022-10-22T14:43:24;15.80;99.90
54684;DHT22;40582;53.100;6.686;2022-10-22T14:45:50;15.80;99.90
54684;DHT22;40582;53.100;6.686;2022-10-22T14:48:16;15.80;99.90
54684;DHT22;40582;53.100;6.686;2022-10-22T14:50:43;15.80;99.90
54684;DHT22;40582;53.100;6.686;2022-10-22T14:53:10;15.80;99.90
54684;DHT22;40582;53.100;6.686;2022-10-22T14:55:35;15.80;99.90
54684;DHT22;40582;53.100;6.686;2022-10-22T14:58:01;15.70;99.90
54684;DHT22;40582;53.100;6.686;2022-10-22T15:00:27;15.70;99.90
54684;DHT22;40582;53.100;6.686;2022-10-22T15:02:53;15.60;99.90
54684;DHT22;40582;53.100;6.686;2022-10-22T15:05:21;15.50;99.90
54684;DHT22;40582;53.100;6.686;2022-10-22T15:07:47;15.50;99.90
54684;DHT22;40582;53.100;6.686;2022-10-22T15:10:13;15.40;99.90
54684;DHT22;40582;53.100;6.686;2022-10-22T15:12:38;15.30;99.90
54684;DHT22;40582;53.100;6.686;2022-10-22T15:15:05;15.20;99.90
54684;DHT22;40582;53.100;6.686;2022-10-22T15:17:30;15.10;99.90
54684;DHT22;40582;53.100;6.686;2022-10-22T15:19:56;15.00;99.90
54684;DHT22;40582;53.100;6.686;2022-10-22T15:22:25;15.00;99.90
54684;DHT22;40582;53.100;6.686;2022-10-22T15:24:53;14.90;99.90
54684;DHT22;40582;53.100;6.686;2022-10-22T15:27:19;14.80;99.90
54684;DHT22;40582;53.100;6.686;2022-10-22T15:29:45;14.70;99.90
54684;DHT22;40582;53.100;6.686;2022-10-22T15:32:10;14.70;99.90
54684;DHT22;40582;53.100;6.686;2022-10-22T15:34:38;14.60;99.90
54684;DHT22;40582;53.100;6.686;2022-10-22T15:37:11;14.50;99.90
54684;DHT22;40582;53.100;6.686;2022-10-22T15:39:39;14.50;99.90
54684;DHT22;40582;53.100;6.686;2022-10-22T15:42:06;14.40;99.90
54684;DHT22;40582;53.100;6.686;2022-10-22T15:44:32;14.30;99.90
54684;DHT22;40582;53.100;6.686;2022-10-22T15:46:58;14.30;99.90
54684;DHT22;40582;53.100;6.686;2022-10-22T15:49:26;14.20;99.90
54684;DHT22;40582;53.100;6.686;2022-10-22T15:51:53;14.10;99.90
54684;DHT22;40582;53.100;6.686;2022-10-22T15:54:22;14.00;99.90
54684;DHT22;40582;53.100;6.686;2022-10-22T15:56:48;14.00;99.90
54684;DHT22;40582;53.100;6.686;2022-10-22T15:59:15;13.90;99.90
54684;DHT22;40582;53.100;6.686;2022-10-22T16:01:41;13.90;99.90
54684;DHT22;40582;53.100;6.686;2022-10-22T16:04:07;13.80;99.90
54684;DHT22;40582;53.100;6.686;2022-10-22T16:09:03;13.70;99.90
54684;DHT22;40582;53.100;6.686;2022-10-22T16:11:30;13.60;99.90
54684;DHT22;40582;53.100;6.686;2022-10-22T16:13:57;13.60;99.90
54684;DHT22;40582;53.100;6.686;2022-10-22T16:16:24;13.50;99.90
54684;DHT22;40582;53.100;6.686;2022-10-22T16:18:51;13.50;99.90
54684;DHT22;40582;53.100;6.686;2022-10-22T16:21:17;13.40;99.90
54684;DHT22;40582;53.100;6.686;2022-10-22T16:23:44;13.30;99.90
54684;DHT22;40582;53.100;6.686;2022-10-22T16:26:10;13.20;99.90
54684;DHT22;40582;53.100;6.686;2022-10-22T16:28:36;13.20;99.90
54684;DHT22;40582;53.100;6.686;2022-10-22T16:31:03;13.20;99.90
54684;DHT22;40582;53.100;6.686;2022-10-22T16:33:29;13.10;99.90
54684;DHT22;40582;53.100;6.686;2022-10-22T16:35:55;13.10;99.90
54684;DHT22;40582;53.100;6.686;2022-10-22T16:38:20;13.00;99.90
54684;DHT22;40582;53.100;6.686;2022-10-22T16:40:46;13.00;99.90
54684;DHT22;40582;53.100;6.686;2022-10-22T16:43:11;13.00;99.90
54684;DHT22;40582;53.100;6.686;2022-10-22T16:45:37;12.90;99.90
54684;DHT22;40582;53.100;6.686;2022-10-22T16:48:03;12.90;99.90
54684;DHT22;40582;53.100;6.686;2022-10-22T16:50:29;12.80;99.90
54684;DHT22;40582;53.100;6.686;2022-10-22T16:52:54;12.80;99.90
54684;DHT22;40582;53.100;6.686;2022-10-22T16:55:20;12.80;99.90
54684;DHT22;40582;53.100;6.686;2022-10-22T16:57:50;12.70;99.90
54684;DHT22;40582;53.100;6.686;2022-10-22T17:00:16;12.70;99.90
54684;DHT22;40582;53.100;6.686;2022-10-22T17:02:42;12.60;99.90
54684;DHT22;40582;53.100;6.686;2022-10-22T17:05:08;12.60;99.90
54684;DHT22;40582;53.100;6.686;2022-10-22T17:07:33;12.50;99.90
54684;DHT22;40582;53.100;6.686;2022-10-22T17:09:59;12.50;99.90
54684;DHT22;40582;53.100;6.686;2022-10-22T17:12:26;12.50;99.90
54684;DHT22;40582;53.100;6.686;2022-10-22T17:14:51;12.50;99.90
54684;DHT22;40582;53.100;6.686;2022-10-22T17:17:17;12.40;99.90
54684;DHT22;40582;53.100;6.686;2022-10-22T17:19:42;12.40;99.90
54684;DHT22;40582;53.100;6.686;2022-10-22T17:22:08;12.30;99.90
54684;DHT22;40582;53.100;6.686;2022-10-22T17:24:34;12.30;99.90
54684;DHT22;40582;53.100;6.686;2022-10-22T17:27:00;12.30;99.90
54684;DHT22;40582;53.100;6.686;2022-10-22T17:29:26;12.30;99.90
54684;DHT22;40582;53.100;6.686;2022-10-22T17:31:51;12.30;99.90
54684;DHT22;40582;53.100;6.686;2022-10-22T17:34:17;12.30;99.90
54684;DHT22;40582;53.100;6.686;2022-10-22T17:36:43;12.30;99.90
54684;DHT22;40582;53.100;6.686;2022-10-22T17:39:14;12.30;99.90
54684;DHT22;40582;53.100;6.686;2022-10-22T17:41:41;12.20;99.90
54684;DHT22;40582;53.100;6.686;2022-10-22T17:44:07;12.20;99.90
54684;DHT22;40582;53.100;6.686;2022-10-22T17:46:36;12.20;99.90